Time;durP1;ratioP1;P1;durP2;ratioP2;P2;SDS_P1;SDS_P2;PMS_P1;PMS_P2;Temp;Humidity;BMP_temperature;BMP_pressure;BME280_temperature;BME280_humidity;BME280_pressure;Samples;Min_cycle;Max_cycle;Signal;HPM_P1;HPM_P2
2023/09/20 00:01:52;;;;;;;3.33;1.40;;;20.60;95.80;;;;;;4992336;28;20041;-17
2023/09/20 00:04:19;;;;;;;2.63;1.27;;;20.60;95.60;;;;;;5018089;28;20532;-17
2023/09/20 00:06:45;;;;;;;1.67;1.20;;;19.90;96.30;;;;;;5024251;28;20029;-17
2023/09/20 00:09:13;;;;;;;2.08;1.20;;;20.60;96.10;;;;;;5018287;28;20033;-17
2023/09/20 00:11:40;;;;;;;2.47;1.20;;;20.70;96.10;;;;;;5014271;28;20045;-17
2023/09/20 00:14:06;;;;;;;2.45;1.00;;;20.70;96.10;;;;;;5018181;28;20435;-17
2023/09/20 00:16:32;;;;;;;2.65;1.27;;;20.70;96.20;;;;;;5021030;28;20021;-17
2023/09/20 00:18:58;;;;;;;3.28;1.50;;;20.70;96.20;;;;;;5000004;28;20348;-17
2023/09/20 00:21:23;;;;;;;2.00;1.10;;;20.80;96.30;;;;;;5024541;28;20113;-17
2023/09/20 00:23:49;;;;;;;2.53;1.20;;;20.80;96.20;;;;;;5012329;28;20033;-17
2023/09/20 00:26:17;;;;;;;3.60;1.33;;;20.80;96.30;;;;;;5012103;28;20030;-17
2023/09/20 00:28:48;;;;;;;1.90;1.07;;;20.80;96.20;;;;;;5015240;28;20048;-17
2023/09/20 00:31:15;;;;;;;2.38;1.10;;;20.90;96.30;;;;;;5032466;28;20132;-17
2023/09/20 00:33:41;;;;;;;2.33;1.45;;;20.90;96.30;;;;;;5001855;28;20079;-17
2023/09/20 00:36:07;;;;;;;3.78;1.30;;;20.90;96.40;;;;;;5033057;28;20025;-17
2023/09/20 00:38:34;;;;;;;2.67;1.30;;;20.90;96.30;;;;;;5031048;28;20048;-17
2023/09/20 00:41:09;;;;;;;2.80;1.38;;;20.90;96.40;;;;;;5008157;28;20333;-17
2023/09/20 00:43:35;;;;;;;2.60;1.17;;;20.90;96.00;;;;;;5024215;28;20021;-17
2023/09/20 00:46:00;;;;;;;2.67;1.13;;;20.90;96.70;;;;;;5024694;28;20602;-17
2023/09/20 00:48:29;;;;;;;2.47;1.13;;;20.90;96.40;;;;;;5009559;28;20179;-17
2023/09/20 00:50:56;;;;;;;1.75;1.10;;;20.90;96.40;;;;;;5019706;28;20225;-17
2023/09/20 00:53:22;;;;;;;2.60;1.20;;;20.90;96.40;;;;;;5031613;28;20572;-17
2023/09/20 00:55:49;;;;;;;1.73;1.10;;;20.90;96.50;;;;;;5012561;28;20141;-17
2023/09/20 00:58:16;;;;;;;3.17;1.20;;;20.90;96.40;;;;;;5019417;28;20035;-17
2023/09/20 01:00:45;;;;;;;2.10;1.20;;;20.90;96.40;;;;;;5017207;28;20043;-17
2023/09/20 01:03:17;;;;;;;2.50;1.00;;;21.20;97.00;;;;;;5037031;22;20037;-17
2023/09/20 01:05:43;;;;;;;2.50;1.30;;;20.90;96.30;;;;;;5037468;28;20171;-18
2023/09/20 01:08:08;;;;;;;3.33;1.20;;;21.00;96.60;;;;;;5049527;28;20080;-18
2023/09/20 01:10:38;;;;;;;4.55;1.30;;;21.00;96.60;;;;;;5035387;28;20161;-18
2023/09/20 01:13:09;;;;;;;3.60;1.20;;;20.90;96.50;;;;;;5037843;28;20126;-18
2023/09/20 01:15:36;;;;;;;2.13;1.17;;;20.90;96.10;;;;;;5026259;28;20081;-18
2023/09/20 01:18:04;;;;;;;2.55;1.23;;;20.90;96.50;;;;;;5045570;28;20041;-18
2023/09/20 01:20:32;;;;;;;2.90;1.10;;;20.90;96.40;;;;;;5018434;28;20013;-18
2023/09/20 01:22:59;;;;;;;3.75;1.30;;;20.90;96.40;;;;;;5039970;28;20147;-18
2023/09/20 01:25:30;;;;;;;3.13;1.27;;;20.90;96.40;;;;;;5044551;28;20123;-18
2023/09/20 01:27:58;;;;;;;1.73;1.20;;;20.90;96.20;;;;;;5032436;28;20689;-18
2023/09/20 01:30:25;;;;;;;2.25;1.15;;;20.90;96.40;;;;;;5036383;28;20440;-18
2023/09/20 01:32:53;;;;;;;2.40;1.40;;;20.90;96.50;;;;;;5024512;28;20526;-18
2023/09/20 01:35:20;;;;;;;3.05;1.20;;;20.90;96.50;;;;;;5014155;28;20071;-18
2023/09/20 01:37:45;;;;;;;2.75;1.30;;;20.90;96.50;;;;;;5036590;28;20037;-18
2023/09/20 01:40:15;;;;;;;5.27;1.30;;;20.90;96.60;;;;;;5048361;28;20021;-18
2023/09/20 01:42:49;;;;;;;2.60;1.30;;;20.90;96.40;;;;;;5033980;28;20248;-18
2023/09/20 01:45:18;;;;;;;3.10;1.23;;;20.80;96.20;;;;;;5037549;28;20012;-18
2023/09/20 01:47:45;;;;;;;3.57;1.30;;;20.80;96.50;;;;;;5030542;28;20141;-18
2023/09/20 01:50:21;;;;;;;2.67;1.25;;;20.80;96.30;;;;;;5018634;28;20959;-18
2023/09/20 01:52:50;;;;;;;3.45;1.40;;;20.80;95.70;;;;;;5038026;28;20488;-18
2023/09/20 01:55:21;;;;;;;3.17;1.40;;;20.70;96.00;;;;;;5046025;28;20114;-18
2023/09/20 01:57:49;;;;;;;4.00;1.40;;;20.90;96.80;;;;;;5032136;28;20025;-18
2023/09/20 02:00:22;;;;;;;1.53;1.17;;;20.60;96.20;;;;;;5033109;28;20017;-18
2023/09/20 02:02:50;;;;;;;2.40;1.20;;;20.60;96.20;;;;;;5038284;28;20077;-18
2023/09/20 02:05:17;;;;;;;2.65;1.50;;;20.50;96.10;;;;;;5024063;28;20555;-18
2023/09/20 02:07:45;;;;;;;2.95;1.30;;;20.50;96.30;;;;;;5042884;28;20039;-18
2023/09/20 02:10:11;;;;;;;3.30;1.45;;;20.40;96.20;;;;;;5045300;28;20029;-18
2023/09/20 02:12:37;;;;;;;2.93;1.27;;;20.40;96.20;;;;;;5034451;28;20029;-18
2023/09/20 02:15:07;;;;;;;3.35;1.40;;;20.40;96.30;;;;;;5032725;28;20059;-17
2023/09/20 02:17:36;;;;;;;3.42;1.38;;;20.30;96.40;;;;;;5047432;28;20028;-18
2023/09/20 02:20:09;;;;;;;2.83;1.50;;;20.30;96.30;;;;;;5013149;28;20032;-18
2023/09/20 02:22:40;;;;;;;2.90;1.40;;;20.30;96.50;;;;;;5053131;28;20021;-18
2023/09/20 02:25:11;;;;;;;2.90;1.17;;;20.30;96.30;;;;;;5032181;28;20191;-18
2023/09/20 02:27:42;;;;;;;3.58;1.38;;;20.20;96.30;;;;;;5048350;28;20033;-18
2023/09/20 02:30:15;;;;;;;2.60;1.15;;;20.20;96.50;;;;;;5019758;28;20089;-18
2023/09/20 02:32:42;;;;;;;2.55;1.20;;;20.20;96.30;;;;;;5044191;28;20032;-18
2023/09/20 02:35:08;;;;;;;2.50;1.50;;;20.20;96.50;;;;;;5032201;28;20070;-18
2023/09/20 02:37:35;;;;;;;2.17;1.40;;;20.10;96.50;;;;;;5027786;28;20068;-18
2023/09/20 02:40:07;;;;;;;3.58;1.60;;;20.10;96.50;;;;;;5037403;28;20048;-18
2023/09/20 02:42:46;;;;;;;4.05;1.60;;;20.10;96.60;;;;;;5041347;28;20033;-18
2023/09/20 02:45:13;;;;;;;4.03;1.58;;;20.10;96.20;;;;;;5023208;28;20020;-18
2023/09/20 02:47:43;;;;;;;3.73;1.80;;;20.10;97.00;;;;;;5048911;28;20625;-18
2023/09/20 02:50:12;;;;;;;4.20;1.75;;;20.00;96.40;;;;;;5028793;28;20028;-18
2023/09/20 02:52:40;;;;;;;3.55;1.67;;;20.00;96.60;;;;;;5022142;28;20375;-18
2023/09/20 02:55:08;;;;;;;3.58;1.60;;;20.00;96.60;;;;;;5020668;28;20110;-18
2023/09/20 02:57:37;;;;;;;2.45;1.52;;;20.00;96.70;;;;;;5044793;28;20465;-18
2023/09/20 03:00:17;;;;;;;3.77;1.63;;;20.00;96.70;;;;;;5039024;28;20063;-18
2023/09/20 03:02:53;;;;;;;3.30;1.40;;;20.00;96.70;;;;;;5044631;28;20063;-18
2023/09/20 03:05:28;;;;;;;3.10;1.90;;;19.90;96.70;;;;;;5003912;28;20041;-18
2023/09/20 03:07:55;;;;;;;3.55;1.60;;;19.90;96.30;;;;;;5026076;28;20490;-18
2023/09/20 03:10:22;;;;;;;2.67;1.50;;;19.90;96.80;;;;;;5030621;28;20035;-18
2023/09/20 03:12:51;;;;;;;4.87;1.83;;;19.90;96.80;;;;;;5037667;28;20063;-18
2023/09/20 03:15:21;;;;;;;3.85;1.50;;;19.90;96.60;;;;;;5028174;28;20445;-18
2023/09/20 03:17:50;;;;;;;2.72;1.55;;;19.80;96.80;;;;;;5037908;28;20034;-18
2023/09/20 03:20:18;;;;;;;4.65;1.50;;;19.80;96.60;;;;;;5037493;28;20064;-18
2023/09/20 03:22:44;;;;;;;2.88;1.33;;;19.80;96.90;;;;;;5012613;28;20618;-18
2023/09/20 03:25:13;;;;;;;3.63;1.50;;;19.80;96.90;;;;;;5036438;28;20072;-18
2023/09/20 03:27:43;;;;;;;2.80;1.20;;;19.80;96.90;;;;;;5033846;28;20029;-16
2023/09/20 03:30:20;;;;;;;2.42;1.23;;;19.70;96.70;;;;;;5034606;28;20546;-17
2023/09/20 03:32:50;;;;;;;4.18;1.60;;;19.70;96.90;;;;;;5036045;28;20093;-16
2023/09/20 03:35:17;;;;;;;3.30;1.60;;;19.70;96.80;;;;;;5041550;28;20028;-17
2023/09/20 03:37:43;;;;;;;3.57;1.50;;;19.60;97.00;;;;;;5005291;28;20612;-16
2023/09/20 03:40:16;;;;;;;3.55;1.25;;;19.60;97.00;;;;;;5045257;28;20029;-16
2023/09/20 03:42:43;;;;;;;2.13;1.20;;;19.60;97.00;;;;;;5030245;28;20040;-16
2023/09/20 03:45:10;;;;;;;2.30;1.33;;;19.50;97.10;;;;;;5033073;28;20031;-16
2023/09/20 03:47:37;;;;;;;2.72;1.20;;;19.50;97.10;;;;;;5035427;28;20463;-16
2023/09/20 03:50:04;;;;;;;2.57;1.20;;;19.50;97.10;;;;;;5040505;28;20395;-16
2023/09/20 03:52:30;;;;;;;2.65;1.35;;;19.50;97.00;;;;;;5044657;28;20082;-16
2023/09/20 03:54:57;;;;;;;3.17;1.40;;;19.40;97.10;;;;;;4993201;28;20627;-17
2023/09/20 03:57:24;;;;;;;2.30;1.20;;;19.40;97.20;;;;;;5030088;28;20025;-17
2023/09/20 03:59:54;;;;;;;3.13;1.50;;;19.50;98.10;;;;;;5042381;28;20033;-16
2023/09/20 04:02:23;;;;;;;2.30;1.15;;;19.40;97.20;;;;;;5019300;28;20033;-17
2023/09/20 04:04:53;;;;;;;2.35;1.00;;;19.30;97.30;;;;;;5038905;28;20068;-16
2023/09/20 04:07:19;;;;;;;2.45;1.20;;;19.30;97.30;;;;;;5027485;28;20029;-16
2023/09/20 04:09:45;;;;;;;2.40;1.20;;;19.20;97.30;;;;;;5023057;28;20028;-16
2023/09/20 04:12:12;;;;;;;1.33;1.10;;;19.20;97.30;;;;;;5034567;28;20081;-16
2023/09/20 04:14:38;;;;;;;1.45;1.02;;;19.20;97.30;;;;;;5044525;28;20253;-16
2023/09/20 04:17:04;;;;;;;2.28;1.10;;;19.20;97.40;;;;;;5032836;28;20056;-16
2023/09/20 04:19:31;;;;;;;2.50;1.20;;;19.20;97.40;;;;;;5022430;28;20143;-17
2023/09/20 04:22:01;;;;;;;1.73;1.00;;;19.20;97.50;;;;;;5049312;28;20032;-16
2023/09/20 04:24:27;;;;;;;1.97;1.00;;;19.10;97.60;;;;;;5043922;28;20310;-17
2023/09/20 04:26:53;;;;;;;2.50;1.23;;;19.10;97.60;;;;;;5012094;28;20395;-16
2023/09/20 04:29:19;;;;;;;2.40;1.30;;;19.10;97.60;;;;;;5016846;28;20051;-16
2023/09/20 04:31:45;;;;;;;2.47;1.20;;;19.10;98.00;;;;;;5048587;28;20033;-16
2023/09/20 04:34:11;;;;;;;1.60;1.13;;;19.00;97.60;;;;;;5023977;28;20476;-16
2023/09/20 04:36:37;;;;;;;1.38;1.10;;;18.90;97.60;;;;;;5042624;28;20657;-17
2023/09/20 04:39:04;;;;;;;2.20;1.20;;;19.00;97.70;;;;;;5048394;28;20103;-16
2023/09/20 04:41:32;;;;;;;1.75;1.00;;;19.00;97.70;;;;;;5016231;28;20306;-16
2023/09/20 04:43:58;;;;;;;2.58;1.00;;;19.00;97.70;;;;;;5035880;28;20033;-16
2023/09/20 04:46:25;;;;;;;2.77;1.03;;;19.00;97.70;;;;;;5046944;28;20483;-16
2023/09/20 04:48:51;;;;;;;1.87;1.10;;;18.90;97.80;;;;;;5034356;28;20274;-16
2023/09/20 04:51:17;;;;;;;2.25;1.13;;;18.90;97.80;;;;;;5024957;28;20041;-16
2023/09/20 04:53:43;;;;;;;1.85;1.10;;;18.90;97.90;;;;;;5044165;28;20071;-16
2023/09/20 04:56:09;;;;;;;1.87;1.10;;;18.90;97.90;;;;;;5024467;28;20029;-16
2023/09/20 04:58:34;;;;;;;2.03;1.13;;;18.90;98.00;;;;;;5030291;28;20795;-16
2023/09/20 05:01:00;;;;;;;1.50;1.00;;;18.90;98.00;;;;;;5047727;28;20017;-16
2023/09/20 05:03:26;;;;;;;3.15;1.00;;;18.90;98.00;;;;;;5024292;28;20517;-16
2023/09/20 05:05:53;;;;;;;2.27;1.10;;;18.90;98.10;;;;;;5020353;28;20116;-16
2023/09/20 05:08:19;;;;;;;1.98;1.10;;;18.90;98.10;;;;;;5033502;28;20038;-16
2023/09/20 05:10:45;;;;;;;2.65;1.10;;;18.80;98.10;;;;;;5039917;28;20032;-16
2023/09/20 05:13:11;;;;;;;2.13;1.00;;;18.80;98.30;;;;;;5031148;28;20430;-16
2023/09/20 05:15:38;;;;;;;2.35;1.10;;;18.80;98.20;;;;;;5039586;28;20029;-16
2023/09/20 05:18:04;;;;;;;1.60;1.20;;;18.80;98.20;;;;;;5050187;28;20483;-16
2023/09/20 05:20:31;;;;;;;1.90;1.00;;;18.80;98.30;;;;;;5040069;28;20056;-16
2023/09/20 05:23:04;;;;;;;2.28;1.10;;;18.80;98.30;;;;;;5033471;28;20064;-16
2023/09/20 05:25:30;;;;;;;2.50;1.13;;;18.80;98.30;;;;;;5050276;28;20035;-16
2023/09/20 05:27:56;;;;;;;1.88;1.20;;;18.70;98.30;;;;;;5024008;28;20024;-16
2023/09/20 05:30:22;;;;;;;1.35;1.00;;;18.80;98.30;;;;;;5041051;28;20054;-16
2023/09/20 05:32:51;;;;;;;1.70;1.07;;;18.70;98.30;;;;;;5035259;28;20032;-17
2023/09/20 05:35:17;;;;;;;2.50;1.30;;;18.70;98.30;;;;;;5037456;28;20044;-16
2023/09/20 05:37:44;;;;;;;1.75;0.95;;;18.70;98.40;;;;;;5047926;28;20539;-16
2023/09/20 05:40:19;;;;;;;3.13;1.25;;;18.70;98.40;;;;;;5010579;28;20021;-16
2023/09/20 05:42:50;;;;;;;3.33;1.25;;;18.70;98.40;;;;;;5030090;28;20028;-16
2023/09/20 05:45:16;;;;;;;1.20;1.00;;;18.70;98.30;;;;;;5053598;28;20027;-16
2023/09/20 05:47:43;;;;;;;1.15;0.90;;;18.70;98.50;;;;;;5027056;28;20035;-18
2023/09/20 05:50:14;;;;;;;3.15;1.00;;;18.70;98.50;;;;;;5052085;28;20017;-18
2023/09/20 05:52:43;;;;;;;3.15;1.10;;;17.90;99.10;;;;;;5025606;28;20111;-18
2023/09/20 05:55:14;;;;;;;2.58;1.00;;;18.70;98.50;;;;;;5038628;28;20269;-18
2023/09/20 05:57:43;;;;;;;1.40;0.90;;;18.70;98.50;;;;;;5050043;28;20116;-18
2023/09/20 06:00:17;;;;;;;1.30;1.02;;;18.60;98.50;;;;;;4998043;28;20036;-18
2023/09/20 06:02:44;;;;;;;1.83;1.10;;;18.70;98.70;;;;;;5046587;28;20074;-18
2023/09/20 06:05:14;;;;;;;4.05;1.20;;;18.70;98.80;;;;;;5050783;28;20047;-18
2023/09/20 06:07:41;;;;;;;1.45;1.00;;;18.70;98.90;;;;;;5040115;28;20029;-18
2023/09/20 06:10:07;;;;;;;2.17;1.00;;;18.70;98.90;;;;;;5036174;28;20054;-18
2023/09/20 06:12:33;;;;;;;1.00;0.90;;;18.70;98.90;;;;;;5044814;28;20492;-18
2023/09/20 06:14:59;;;;;;;1.77;1.00;;;18.70;99.00;;;;;;5021526;28;20028;-18
2023/09/20 06:17:34;;;;;;;2.17;1.27;;;18.70;99.00;;;;;;5037032;28;20682;-18
2023/09/20 06:20:00;;;;;;;2.20;1.00;;;18.80;99.10;;;;;;5046892;28;20638;-18
2023/09/20 06:22:29;;;;;;;2.03;1.10;;;18.80;99.20;;;;;;5032821;28;20275;-18
2023/09/20 06:24:58;;;;;;;1.77;1.00;;;18.80;99.20;;;;;;5042173;28;20843;-18
2023/09/20 06:27:31;;;;;;;2.95;1.10;;;18.90;99.30;;;;;;5041547;28;20025;-18
2023/09/20 06:30:06;;;;;;;1.92;1.20;;;18.90;99.40;;;;;;5026825;28;20531;-18
2023/09/20 06:32:33;;;;;;;1.93;1.20;;;18.90;99.50;;;;;;5015200;28;20461;-18
2023/09/20 06:35:07;;;;;;;2.13;1.30;;;18.90;99.70;;;;;;5047320;28;20101;-18
2023/09/20 06:37:38;;;;;;;3.22;1.17;;;19.00;99.60;;;;;;5035812;28;20332;-18
2023/09/20 06:40:15;;;;;;;2.58;1.40;;;19.00;99.80;;;;;;5015081;28;20020;-18
2023/09/20 06:42:41;;;;;;;3.00;1.48;;;19.10;99.90;;;;;;5050960;28;20031;-18
2023/09/20 06:45:08;;;;;;;3.33;1.67;;;19.20;99.90;;;;;;5043268;28;20020;-18
2023/09/20 06:47:34;;;;;;;2.65;1.30;;;19.30;99.90;;;;;;5023589;28;20517;-18
2023/09/20 06:50:04;;;;;;;2.90;1.20;;;19.40;99.90;;;;;;5048390;28;20116;-18
2023/09/20 06:52:29;;;;;;;3.13;1.37;;;19.50;99.90;;;;;;5024230;28;20614;-18
2023/09/20 06:54:55;;;;;;;3.42;1.30;;;19.60;99.90;;;;;;5052851;28;20041;-18
2023/09/20 06:57:22;;;;;;;4.73;1.70;;;19.60;99.90;;;;;;5044959;28;20502;-17
2023/09/20 06:59:52;;;;;;;2.08;1.30;;;19.70;99.90;;;;;;5050907;28;20161;-17
2023/09/20 07:02:19;;;;;;;2.05;1.48;;;19.80;99.90;;;;;;5017574;28;20029;-16
2023/09/20 07:04:44;;;;;;;2.33;1.42;;;19.90;99.90;;;;;;5032744;28;20025;-16
2023/09/20 07:07:10;;;;;;;4.93;1.52;;;19.90;99.90;;;;;;5043157;28;20029;-16
2023/09/20 07:09:37;;;;;;;1.97;1.33;;;20.00;99.90;;;;;;5035322;28;20025;-16
2023/09/20 07:12:03;;;;;;;2.70;1.30;;;20.10;99.90;;;;;;5038773;28;20391;-16
2023/09/20 07:14:32;;;;;;;2.72;1.40;;;20.20;99.90;;;;;;5048081;28;20017;-16
2023/09/20 07:17:00;;;;;;;2.20;1.30;;;20.20;99.90;;;;;;5043113;28;20025;-16
2023/09/20 07:19:29;;;;;;;1.90;1.20;;;20.40;99.90;;;;;;5019397;28;20142;-16
2023/09/20 07:21:56;;;;;;;2.53;1.50;;;20.40;99.90;;;;;;5048854;28;20052;-16
2023/09/20 07:24:24;;;;;;;3.08;1.50;;;20.50;99.90;;;;;;5033026;28;20041;-17
2023/09/20 07:26:58;;;;;;;2.22;1.38;;;20.60;99.90;;;;;;5038141;28;20035;-17
2023/09/20 07:29:24;;;;;;;2.38;1.30;;;20.70;99.90;;;;;;5044990;28;20591;-17
2023/09/20 07:31:50;;;;;;;3.63;1.40;;;20.70;99.90;;;;;;5049200;28;20051;-16
2023/09/20 07:34:19;;;;;;;2.03;1.42;;;20.80;99.90;;;;;;5015035;28;20037;-16
2023/09/20 07:36:49;;;;;;;2.40;1.33;;;20.90;99.90;;;;;;5044343;28;20103;-16
2023/09/20 07:39:17;;;;;;;4.28;1.88;;;20.90;99.70;;;;;;5016939;28;20049;-17
2023/09/20 07:41:45;;;;;;;2.90;1.60;;;20.90;99.50;;;;;;5032596;28;20076;-16
2023/09/20 07:44:13;;;;;;;3.75;1.80;;;20.90;99.70;;;;;;5047969;28;20036;-16
2023/09/20 07:46:40;;;;;;;3.53;1.50;;;21.00;99.90;;;;;;5047841;28;20040;-16
2023/09/20 07:49:13;;;;;;;2.97;1.60;;;21.10;99.90;;;;;;5015674;28;20035;-16
2023/09/20 07:51:39;;;;;;;3.67;1.80;;;21.20;99.90;;;;;;5050064;28;20238;-16
2023/09/20 07:54:08;;;;;;;2.30;1.40;;;21.40;99.90;;;;;;5048465;28;20024;-16
2023/09/20 07:56:34;;;;;;;2.45;1.40;;;21.50;99.90;;;;;;5025346;28;20390;-17
2023/09/20 07:59:03;;;;;;;2.17;1.50;;;21.70;99.90;;;;;;5053033;28;20024;-16
2023/09/20 08:01:30;;;;;;;3.42;1.60;;;21.80;99.90;;;;;;5034280;28;20242;-17
2023/09/20 08:03:59;;;;;;;3.20;1.45;;;22.00;99.90;;;;;;5042972;28;20127;-16
2023/09/20 08:06:29;;;;;;;3.73;1.53;;;22.10;99.90;;;;;;5020038;28;20584;-16
2023/09/20 08:08:58;;;;;;;2.60;1.40;;;22.20;99.00;;;;;;5049925;28;20031;-16
2023/09/20 08:11:25;;;;;;;2.22;1.15;;;22.20;99.10;;;;;;5033594;28;20058;-16
2023/09/20 08:13:55;;;;;;;3.80;1.30;;;22.20;99.20;;;;;;5035497;28;20052;-16
2023/09/20 08:16:23;;;;;;;4.47;1.23;;;22.20;98.70;;;;;;5049851;28;20041;-17
2023/09/20 08:21:35;;;;;;;2.92;1.20;;;22.20;98.90;;;;;;5022566;28;20420;-17
2023/09/20 09:00:24;;;;;;;2.17;1.20;;;23.00;99.30;;;;;;5050377;28;20037;-17
2023/09/20 09:03:03;;;;;;;1.33;0.90;;;23.10;99.20;;;;;;5046619;28;20024;-16
2023/09/20 09:05:30;;;;;;;3.10;1.25;;;23.20;97.80;;;;;;5041781;28;20134;-17
2023/09/20 09:07:57;;;;;;;2.00;1.00;;;23.30;98.80;;;;;;5022765;28;20714;-17
2023/09/20 09:10:23;;;;;;;1.77;1.00;;;23.30;98.80;;;;;;5050272;28;20108;-17
2023/09/20 09:12:49;;;;;;;1.80;1.33;;;23.40;98.80;;;;;;5021735;28;20137;-16
2023/09/20 09:15:16;;;;;;;3.13;1.30;;;23.50;97.10;;;;;;5050793;28;20029;-17
2023/09/20 09:17:47;;;;;;;2.83;1.15;;;23.50;98.50;;;;;;5065056;28;20459;-19
2023/09/20 09:20:17;;;;;;;2.60;1.42;;;23.60;98.00;;;;;;5049105;28;20092;-19
2023/09/20 09:22:44;;;;;;;3.13;1.30;;;23.70;98.60;;;;;;5017374;28;20055;-18
2023/09/20 09:25:14;;;;;;;2.35;1.42;;;23.80;98.80;;;;;;5048373;28;20572;-18
2023/09/20 09:27:41;;;;;;;2.33;1.48;;;23.90;98.40;;;;;;5032363;28;20035;-19
2023/09/20 09:30:15;;;;;;;2.13;1.40;;;24.00;98.00;;;;;;5047248;28;20021;-18
2023/09/20 09:32:43;;;;;;;1.98;1.30;;;24.10;96.90;;;;;;5045187;28;20119;-18
2023/09/20 09:35:12;;;;;;;2.67;1.27;;;24.10;97.30;;;;;;5047303;28;20032;-19
2023/09/20 09:37:41;;;;;;;2.38;1.20;;;24.10;97.10;;;;;;5013367;28;20062;-18
2023/09/20 09:40:09;;;;;;;2.45;1.33;;;24.00;97.00;;;;;;5050179;28;20427;-18
2023/09/20 09:42:36;;;;;;;2.45;1.20;;;24.00;96.80;;;;;;5038481;28;20473;-18
2023/09/20 09:45:02;;;;;;;2.70;1.20;;;24.00;96.70;;;;;;5033629;28;20104;-19
2023/09/20 09:47:30;;;;;;;2.97;1.20;;;23.80;96.70;;;;;;5048265;28;20024;-19
2023/09/20 09:49:59;;;;;;;1.27;1.00;;;23.80;96.90;;;;;;5049588;28;20575;-18
2023/09/20 09:52:26;;;;;;;1.98;1.10;;;23.80;97.00;;;;;;5044545;28;20021;-18
2023/09/20 09:54:55;;;;;;;2.00;1.00;;;23.70;97.00;;;;;;5023434;28;20319;-18
2023/09/20 09:57:21;;;;;;;1.92;1.00;;;23.70;96.80;;;;;;5033315;28;20185;-18
2023/09/20 09:59:48;;;;;;;1.93;0.97;;;23.70;96.70;;;;;;5036532;28;20120;-18
2023/09/20 10:02:19;;;;;;;1.27;0.90;;;23.60;96.50;;;;;;5044797;28;20176;-19
2023/09/20 10:05:02;;;;;;;2.08;1.10;;;23.60;96.10;;;;;;5053329;28;20040;-18
2023/09/20 10:07:33;;;;;;;2.58;0.90;;;23.60;95.90;;;;;;5042385;28;20028;-19
2023/09/20 10:10:08;;;;;;;1.83;1.08;;;23.60;96.60;;;;;;5025618;28;20042;-18
2023/09/20 10:12:38;;;;;;;1.80;1.10;;;23.60;96.00;;;;;;5048133;28;20036;-18
2023/09/20 10:15:06;;;;;;;1.70;1.10;;;23.60;96.10;;;;;;5012300;28;20516;-18
2023/09/20 10:17:33;;;;;;;1.52;1.08;;;23.60;96.20;;;;;;5047805;28;20115;-18
2023/09/20 10:19:59;;;;;;;2.42;1.10;;;23.60;96.70;;;;;;5047676;28;20499;-19
2023/09/20 10:22:26;;;;;;;1.00;0.90;;;23.70;96.90;;;;;;5041517;28;20111;-18
2023/09/20 10:24:58;;;;;;;1.92;1.00;;;23.70;96.60;;;;;;5049220;28;20032;-19
2023/09/20 10:27:30;;;;;;;1.40;1.02;;;23.70;95.80;;;;;;5033058;28;20089;-17
2023/09/20 10:30:11;;;;;;;3.13;1.20;;;23.70;96.00;;;;;;5036706;28;20044;-17
2023/09/20 10:32:38;;;;;;;1.10;0.90;;;23.70;95.00;;;;;;5038634;28;20769;-17
2023/09/20 10:35:27;;;;;;;2.73;1.10;;;23.80;96.40;;;;;;5048381;28;20263;-17
2023/09/20 10:37:56;;;;;;;1.95;1.00;;;23.80;96.10;;;;;;5040053;28;20017;-17
2023/09/20 10:40:22;;;;;;;2.20;1.00;;;23.80;96.60;;;;;;5047507;28;20427;-17
2023/09/20 10:42:55;;;;;;;3.60;1.10;;;24.00;97.10;;;;;;5024066;28;20460;-17
2023/09/20 10:45:21;;;;;;;2.65;1.10;;;24.00;96.60;;;;;;5035150;28;20154;-16
2023/09/20 10:47:52;;;;;;;1.23;1.00;;;24.20;96.80;;;;;;5021987;28;20368;-17
2023/09/20 10:50:48;;;;;;;2.33;0.90;;;24.30;97.00;;;;;;5035869;28;20036;-17
2023/09/20 10:53:14;;;;;;;2.15;1.02;;;24.40;95.90;;;;;;5016795;28;20041;-17
2023/09/20 10:55:39;;;;;;;1.57;0.90;;;24.50;97.70;;;;;;5053437;28;20567;-19
2023/09/20 10:58:05;;;;;;;1.10;1.00;;;24.80;97.60;;;;;;5013679;28;20037;-17
2023/09/20 11:00:35;;;;;;;2.00;1.00;;;25.00;97.60;;;;;;5039886;28;20631;-17
2023/09/20 11:03:08;;;;;;;2.00;1.20;;;25.10;96.40;;;;;;5040956;28;20266;-17
2023/09/20 11:05:35;;;;;;;2.65;1.05;;;25.20;96.10;;;;;;5044861;28;20495;-17
2023/09/20 11:08:08;;;;;;;2.65;1.00;;;25.30;96.90;;;;;;5040220;28;20031;-17
2023/09/20 11:10:35;;;;;;;1.95;1.30;;;25.50;96.40;;;;;;5026833;28;20067;-17
2023/09/20 11:13:09;;;;;;;2.35;1.38;;;25.60;96.20;;;;;;5030069;28;20048;-17
2023/09/20 11:15:41;;;;;;;2.33;1.17;;;25.80;95.30;;;;;;5036062;28;20173;-17
2023/09/20 11:18:10;;;;;;;1.63;0.98;;;25.90;96.40;;;;;;5039213;28;20029;-16
2023/09/20 11:20:37;;;;;;;2.17;0.90;;;26.00;94.80;;;;;;5031264;28;20028;-17
2023/09/20 11:23:03;;;;;;;2.03;1.00;;;26.00;95.20;;;;;;5042270;28;20108;-17
2023/09/20 11:25:29;;;;;;;1.23;0.80;;;26.00;95.00;;;;;;5047797;28;20037;-17
2023/09/20 11:27:58;;;;;;;2.10;1.00;;;25.90;94.80;;;;;;5024692;28;20036;-17
2023/09/20 11:30:28;;;;;;;1.80;0.90;;;25.70;93.80;;;;;;5023122;28;20367;-17
2023/09/20 11:33:01;;;;;;;1.75;0.98;;;25.70;93.90;;;;;;4997122;28;20117;-17
2023/09/20 11:35:34;;;;;;;1.33;0.98;;;25.50;94.00;;;;;;5008390;28;20028;-17
2023/09/20 11:38:04;;;;;;;1.30;0.83;;;25.40;93.30;;;;;;5011149;28;20024;-17
2023/09/20 11:40:41;;;;;;;2.65;1.00;;;25.20;93.30;;;;;;5005579;28;20029;-17
2023/09/20 11:43:09;;;;;;;1.58;1.00;;;25.00;92.50;;;;;;5031411;28;20044;-17
2023/09/20 11:45:41;;;;;;;1.20;0.85;;;24.90;93.60;;;;;;5007115;28;20116;-17
2023/09/20 11:48:12;;;;;;;1.27;1.00;;;24.70;93.60;;;;;;5025277;28;20020;-17
2023/09/20 11:50:43;;;;;;;1.33;0.90;;;24.60;93.50;;;;;;5013745;28;20222;-17
2023/09/20 11:53:17;;;;;;;1.65;0.90;;;24.40;93.20;;;;;;5039094;28;20029;-17
2023/09/20 11:55:44;;;;;;;1.77;1.00;;;24.30;93.70;;;;;;5032378;28;20552;-17
2023/09/20 11:58:10;;;;;;;1.90;1.00;;;24.20;93.90;;;;;;5046632;28;20025;-16
2023/09/20 12:00:36;;;;;;;1.27;0.90;;;24.20;94.00;;;;;;5014128;28;20059;-17
2023/09/20 12:03:03;;;;;;;1.57;1.10;;;25.30;94.70;;;;;;5022845;28;20580;-17
2023/09/20 12:05:29;;;;;;;1.35;0.90;;;24.00;94.10;;;;;;5030622;28;20071;-17
2023/09/20 12:08:00;;;;;;;1.02;0.80;;;24.00;94.50;;;;;;5035318;28;21416;-16
2023/09/20 12:10:27;;;;;;;1.63;0.90;;;24.00;94.10;;;;;;5036651;28;20119;-17
2023/09/20 12:12:53;;;;;;;1.65;1.10;;;23.90;94.70;;;;;;5046351;28;20025;-17
2023/09/20 12:15:22;;;;;;;1.67;1.00;;;24.00;94.70;;;;;;5023664;28;20036;-17
2023/09/20 12:17:53;;;;;;;1.55;1.00;;;24.00;94.90;;;;;;5035009;28;20025;-17
2023/09/20 12:20:19;;;;;;;1.05;0.80;;;22.70;94.60;;;;;;5025622;28;20021;-17
2023/09/20 12:22:45;;;;;;;1.53;0.90;;;24.00;95.00;;;;;;5033698;28;20214;-17
2023/09/20 12:25:11;;;;;;;1.65;0.90;;;24.10;95.00;;;;;;5035895;28;20086;-17
2023/09/20 12:27:37;;;;;;;1.20;0.95;;;24.10;94.90;;;;;;5044160;28;20024;-17
2023/09/20 12:30:04;;;;;;;1.52;0.90;;;24.10;94.80;;;;;;5029256;28;20131;-17
2023/09/20 12:32:31;;;;;;;1.37;0.80;;;24.20;94.80;;;;;;5023294;28;20415;-17
2023/09/20 12:34:57;;;;;;;2.20;0.80;;;24.20;95.20;;;;;;5005123;28;20027;-17
2023/09/20 12:37:23;;;;;;;1.67;1.08;;;24.20;94.70;;;;;;5027837;28;20521;-16
2023/09/20 12:39:50;;;;;;;1.50;1.10;;;24.20;94.70;;;;;;5043804;28;20033;-17
2023/09/20 12:42:16;;;;;;;2.47;0.90;;;24.20;94.70;;;;;;5047906;28;20028;-17
2023/09/20 12:44:43;;;;;;;1.65;0.90;;;24.30;94.70;;;;;;5042482;28;20498;-17
2023/09/20 12:47:09;;;;;;;1.50;1.10;;;24.30;94.90;;;;;;5017519;28;20612;-17
2023/09/20 12:49:37;;;;;;;1.50;0.80;;;24.30;95.00;;;;;;5035595;28;20029;-17
2023/09/20 12:52:04;;;;;;;1.92;0.90;;;24.30;95.10;;;;;;5027601;28;20180;-17
2023/09/20 12:54:33;;;;;;;1.20;0.80;;;24.40;95.10;;;;;;5018988;28;20070;-17
2023/09/20 12:56:59;;;;;;;1.50;0.90;;;24.50;95.10;;;;;;5036766;28;20606;-17
2023/09/20 12:59:27;;;;;;;0.88;0.75;;;24.50;95.20;;;;;;5040843;28;20040;-17
2023/09/20 13:02:02;;;;;;;1.20;0.90;;;24.60;95.30;;;;;;5022796;28;20365;-17
2023/09/20 13:04:27;;;;;;;1.65;0.80;;;24.70;94.70;;;;;;5035105;28;20669;-17
2023/09/20 13:06:54;;;;;;;1.00;0.80;;;24.70;95.20;;;;;;5032426;28;20027;-16
2023/09/20 13:09:21;;;;;;;2.40;0.80;;;24.80;95.00;;;;;;5037632;28;20496;-17
2023/09/20 13:11:48;;;;;;;1.30;0.80;;;24.90;95.00;;;;;;5035873;28;20038;-17
2023/09/20 13:14:19;;;;;;;1.27;0.73;;;24.90;94.90;;;;;;5035946;28;20056;-17
2023/09/20 13:16:48;;;;;;;1.63;0.80;;;25.00;94.80;;;;;;5020027;28;20753;-16
2023/09/20 13:19:18;;;;;;;1.85;0.90;;;25.00;94.70;;;;;;5046795;28;20021;-16
2023/09/20 13:21:44;;;;;;;1.65;0.82;;;25.00;94.80;;;;;;5036104;28;20238;-17
2023/09/20 13:24:11;;;;;;;1.52;0.90;;;25.00;94.50;;;;;;5003617;28;20028;-17
2023/09/20 13:26:40;;;;;;;2.30;1.10;;;25.00;94.20;;;;;;5033623;28;20228;-16
2023/09/20 13:29:07;;;;;;;1.70;0.93;;;25.00;93.60;;;;;;5022372;28;20017;-17
2023/09/20 13:31:35;;;;;;;1.40;1.00;;;25.00;93.60;;;;;;5036682;28;20341;-16
2023/09/20 13:34:03;;;;;;;2.33;1.02;;;25.00;93.80;;;;;;5020860;28;20052;-17